Time;durP1;ratioP1;P1;durP2;ratioP2;P2;SDS_P1;SDS_P2;PMS_P1;PMS_P2;Temp;Humidity;BMP_temperature;BMP_pressure;BME280_temperature;BME280_humidity;BME280_pressure;Samples;Min_cycle;Max_cycle;Signal;HPM_P1;HPM_P2
2022/01/26 00:07:20;;;;;;;86.40;41.13;;;3.70;99.90;;;;;;4843017;29;20030;-77
2022/01/26 00:09:48;;;;;;;93.68;43.15;;;3.80;99.90;;;;;;4793044;29;20022;-77
2022/01/26 00:12:14;;;;;;;98.00;43.40;;;3.70;99.90;;;;;;4791498;29;20030;-78
2022/01/26 00:14:43;;;;;;;92.43;42.27;;;3.70;99.90;;;;;;4804344;29;20489;-78
2022/01/26 00:17:11;;;;;;;102.13;45.93;;;3.70;99.90;;;;;;4792317;29;20029;-75
2022/01/26 00:22:40;;;;;;;97.43;44.88;;;3.70;99.90;;;;;;4819840;29;20049;-78
2022/01/26 00:26:02;;;;;;;100.60;44.13;;;3.70;99.90;;;;;;4839627;29;20390;-77
2022/01/26 00:28:07;;;;;;;91.00;41.17;;;3.70;99.90;;;;;;4799075;29;20041;-77
2022/01/26 00:38:35;;;;;;;93.50;42.63;;;3.70;99.90;;;;;;4824028;29;20042;-77
2022/01/26 00:41:08;;;;;;;94.73;42.73;;;3.70;99.90;;;;;;4818826;29;20037;-76
2022/01/26 00:43:35;;;;;;;102.18;44.20;;;3.60;99.90;;;;;;4823725;29;20134;-77
2022/01/26 00:46:05;;;;;;;88.93;41.03;;;3.60;99.90;;;;;;4808415;29;20037;-77
2022/01/26 00:48:34;;;;;;;100.87;43.90;;;3.60;99.90;;;;;;4824011;29;20042;-78
2022/01/26 00:51:04;;;;;;;110.30;48.27;;;3.60;99.90;;;;;;4853518;29;20056;-78
2022/01/26 00:53:59;;;;;;;107.57;49.20;;;3.60;99.90;;;;;;4810319;29;20030;-78
2022/01/26 00:56:18;;;;;;;110.70;47.00;;;3.60;99.90;;;;;;4821586;29;20053;-78
2022/01/26 00:58:46;;;;;;;109.80;49.07;;;3.60;99.90;;;;;;4808391;29;20568;-79
2022/01/26 01:01:12;;;;;;;113.73;49.53;;;3.50;99.90;;;;;;4794323;29;20045;-79
2022/01/26 01:03:43;;;;;;;113.37;47.53;;;3.50;99.90;;;;;;4791754;29;20389;-78
2022/01/26 01:06:16;;;;;;;111.40;46.55;;;3.50;99.90;;;;;;4793242;29;20025;-78
2022/01/26 01:08:42;;;;;;;110.82;48.25;;;3.50;99.90;;;;;;4823165;29;20367;-78
2022/01/26 01:11:12;;;;;;;104.10;44.88;;;3.50;99.90;;;;;;4806339;29;20026;-79
2022/01/26 01:13:41;;;;;;;108.40;45.37;;;3.50;99.90;;;;;;4825205;29;20042;-79
2022/01/26 01:16:11;;;;;;;100.90;43.07;;;3.50;99.90;;;;;;4807696;29;20093;-79
2022/01/26 01:29:30;;;;;;;99.77;42.93;;;3.50;99.90;;;;;;4819511;29;20051;-79
2022/01/26 01:32:01;;;;;;;100.20;43.23;;;3.50;99.90;;;;;;4836699;29;20061;-79
2022/01/26 01:34:37;;;;;;;104.27;44.53;;;3.50;99.90;;;;;;4793917;29;20034;-79
2022/01/26 01:37:12;;;;;;;116.47;50.03;;;3.50;99.90;;;;;;4821855;29;20048;-79
2022/01/26 01:39:39;;;;;;;110.60;50.63;;;3.40;99.90;;;;;;4805846;29;20029;-79
2022/01/26 01:42:07;;;;;;;108.47;46.73;;;3.40;99.90;;;;;;4791082;29;20381;-79
2022/01/26 01:44:34;;;;;;;100.23;44.57;;;3.30;99.90;;;;;;4824307;29;20074;-79
2022/01/26 01:47:00;;;;;;;100.23;44.90;;;3.30;99.90;;;;;;4835933;29;20489;-79
2022/01/26 01:49:27;;;;;;;103.97;44.70;;;3.30;99.90;;;;;;4807200;29;20037;-79
2022/01/26 01:52:01;;;;;;;92.03;42.37;;;3.30;99.90;;;;;;4805657;29;20054;-79
2022/01/26 01:54:27;;;;;;;93.77;41.17;;;3.30;99.90;;;;;;4822953;29;20385;-79
2022/01/26 01:56:57;;;;;;;94.83;43.13;;;3.30;99.90;;;;;;4793876;29;20033;-79
2022/01/26 01:59:29;;;;;;;83.03;37.97;;;3.20;99.90;;;;;;4806838;29;20034;-79
2022/01/26 02:01:56;;;;;;;80.63;37.88;;;3.20;99.90;;;;;;4791990;29;20378;-79
2022/01/26 02:04:23;;;;;;;77.40;36.20;;;3.30;99.90;;;;;;4794211;29;20037;-79
2022/01/26 02:06:50;;;;;;;78.87;36.70;;;3.30;99.90;;;;;;4837463;29;20041;-79
2022/01/26 02:09:16;;;;;;;82.60;37.30;;;3.30;99.90;;;;;;4839274;29;20484;-79
2022/01/26 02:11:52;;;;;;;77.63;35.47;;;3.30;99.90;;;;;;4791167;29;20033;-79
2022/01/26 02:14:28;;;;;;;81.83;37.37;;;3.30;99.90;;;;;;4834725;29;20034;-79
2022/01/26 02:17:08;;;;;;;78.70;36.03;;;3.40;99.90;;;;;;4818832;29;20077;-79
2022/01/26 02:52:51;;;;;;;83.00;37.00;;;3.50;99.90;;;;;;4822545;29;20330;-80
2022/01/26 02:55:32;;;;;;;82.90;36.90;;;3.50;99.90;;;;;;4821836;29;20052;-79
2022/01/26 03:03:30;;;;;;;81.43;36.67;;;3.50;99.90;;;;;;4822660;29;20370;-80
2022/01/26 03:06:02;;;;;;;81.13;36.13;;;3.50;99.90;;;;;;4803998;29;20033;-80
2022/01/26 03:08:36;;;;;;;76.93;34.92;;;3.60;99.90;;;;;;4836748;29;20042;-78
2022/01/26 03:11:08;;;;;;;80.17;36.03;;;3.60;99.90;;;;;;4788772;29;20385;-78
2022/01/26 03:13:40;;;;;;;77.22;36.22;;;3.60;99.90;;;;;;4793555;29;20029;-78
2022/01/26 03:16:22;;;;;;;77.63;34.37;;;3.60;99.90;;;;;;4820039;29;20054;-78
2022/01/26 03:18:58;;;;;;;77.60;34.42;;;3.60;99.90;;;;;;4806279;29;20048;-78
2022/01/26 03:21:39;;;;;;;78.13;37.00;;;3.60;99.90;;;;;;4805954;29;20120;-78
2022/01/26 03:34:53;;;;;;;75.63;33.53;;;3.60;99.90;;;;;;4807610;29;20478;-80
2022/01/26 03:37:24;;;;;;;88.20;37.92;;;3.60;99.90;;;;;;4824023;29;20036;-80
2022/01/26 03:39:52;;;;;;;87.77;38.80;;;3.60;99.90;;;;;;4823443;29;20045;-80
2022/01/26 03:42:19;;;;;;;86.80;38.07;;;3.60;99.90;;;;;;4794595;29;20500;-80
2022/01/26 03:44:45;;;;;;;94.93;42.00;;;3.60;99.90;;;;;;4800759;29;20035;-80
2022/01/26 03:47:12;;;;;;;93.00;40.33;;;3.60;99.90;;;;;;4797437;29;20045;-79
2022/01/26 03:49:40;;;;;;;87.20;36.67;;;3.60;99.90;;;;;;4783113;29;20030;-80
2022/01/26 03:52:07;;;;;;;91.53;41.17;;;3.60;99.90;;;;;;4797495;29;20034;-79
2022/01/26 03:54:33;;;;;;;92.90;41.47;;;3.70;99.90;;;;;;4811887;29;20102;-80
2022/01/26 03:57:00;;;;;;;96.23;42.87;;;3.60;99.90;;;;;;4796336;29;20041;-80
2022/01/26 03:59:26;;;;;;;102.47;46.70;;;3.60;99.90;;;;;;4768150;29;20039;-79
2022/01/26 04:01:52;;;;;;;96.25;43.97;;;3.60;99.90;;;;;;4826462;29;20047;-80
2022/01/26 04:04:19;;;;;;;105.83;47.97;;;3.60;99.90;;;;;;4769629;29;20526;-80
2022/01/26 04:06:45;;;;;;;99.70;44.80;;;3.70;99.90;;;;;;4822953;29;20022;-80
2022/01/26 04:09:14;;;;;;;104.43;46.77;;;3.60;99.90;;;;;;4766828;29;20026;-79
2022/01/26 04:11:44;;;;;;;102.73;46.43;;;3.60;99.90;;;;;;4768364;29;20387;-80
2022/01/26 04:14:14;;;;;;;95.90;44.10;;;3.60;99.90;;;;;;4780840;29;20031;-80
2022/01/26 04:16:42;;;;;;;103.53;46.03;;;3.60;99.90;;;;;;4805009;29;20037;-80
2022/01/26 04:19:09;;;;;;;91.60;41.43;;;3.70;99.90;;;;;;4797895;29;20041;-80
2022/01/26 04:24:22;;;;;;;97.32;41.42;;;3.70;99.90;;;;;;4813206;29;20383;-80
2022/01/26 04:27:18;;;;;;;103.30;45.13;;;3.70;99.90;;;;;;4796523;29;20027;-80
2022/01/26 04:29:46;;;;;;;93.90;42.22;;;3.70;99.90;;;;;;4796651;29;20391;-80
2022/01/26 04:32:14;;;;;;;113.43;49.77;;;3.70;99.90;;;;;;4826911;29;20441;-79
2022/01/26 04:34:41;;;;;;;98.38;44.70;;;3.70;99.90;;;;;;4812351;29;20034;-80
2022/01/26 04:39:46;;;;;;;96.57;43.88;;;3.70;99.90;;;;;;4810448;29;20041;-78
2022/01/26 04:42:24;;;;;;;100.13;43.03;;;3.80;99.90;;;;;;4788706;29;20532;-78
2022/01/26 04:44:58;;;;;;;104.83;45.10;;;3.80;99.90;;;;;;4808274;29;20041;-78
2022/01/26 04:47:24;;;;;;;100.85;45.58;;;3.80;99.90;;;;;;4808270;29;20386;-79
2022/01/26 04:49:50;;;;;;;105.93;44.57;;;3.80;99.90;;;;;;4789999;29;20474;-79
2022/01/26 04:52:16;;;;;;;94.97;41.97;;;3.80;99.90;;;;;;4809184;29;20055;-79
2022/01/26 04:54:43;;;;;;;104.47;46.80;;;3.80;99.90;;;;;;4806415;29;20046;-80
2022/01/26 04:57:09;;;;;;;109.53;46.17;;;3.80;99.90;;;;;;4807191;29;20359;-80
2022/01/26 04:59:35;;;;;;;105.32;46.38;;;3.80;99.90;;;;;;4838515;29;20028;-80
2022/01/26 05:02:02;;;;;;;101.37;45.20;;;3.90;99.90;;;;;;4821798;29;20470;-80
2022/01/26 05:04:28;;;;;;;110.50;49.17;;;3.90;99.90;;;;;;4822049;29;20033;-79
2022/01/26 05:06:54;;;;;;;116.35;50.88;;;3.90;99.90;;;;;;4807834;29;20405;-80
2022/01/26 05:09:21;;;;;;;108.67;47.77;;;3.80;99.90;;;;;;4807029;29;20385;-79
2022/01/26 05:11:51;;;;;;;104.85;48.25;;;3.80;99.90;;;;;;4821364;29;20591;-79
2022/01/26 05:14:17;;;;;;;101.57;46.93;;;3.80;99.90;;;;;;4808064;29;20040;-78
2022/01/26 05:16:44;;;;;;;117.73;52.27;;;3.80;99.90;;;;;;4820710;29;20025;-78
2022/01/26 05:19:10;;;;;;;115.50;50.87;;;3.80;99.90;;;;;;4793101;29;20029;-78
2022/01/26 05:21:37;;;;;;;117.20;52.42;;;3.80;99.90;;;;;;4794008;29;20441;-78
2022/01/26 05:24:04;;;;;;;112.85;50.15;;;3.80;99.90;;;;;;4794372;29;20121;-78
2022/01/26 05:26:30;;;;;;;115.07;50.90;;;3.70;99.90;;;;;;4805715;29;20480;-78
2022/01/26 05:28:56;;;;;;;110.77;50.40;;;3.80;99.90;;;;;;4793624;29;20036;-78
2022/01/26 05:31:23;;;;;;;113.30;49.67;;;3.80;99.90;;;;;;4791009;29;20390;-79
2022/01/26 05:33:50;;;;;;;112.80;48.53;;;3.80;99.90;;;;;;4806073;29;20034;-79
2022/01/26 05:36:16;;;;;;;102.40;45.03;;;3.80;99.90;;;;;;4806833;29;20040;-79
2022/01/26 05:38:42;;;;;;;112.38;48.80;;;3.80;99.90;;;;;;4792798;29;20382;-79
2022/01/26 05:41:10;;;;;;;98.00;44.53;;;3.80;99.90;;;;;;4787227;29;20035;-80
2022/01/26 05:43:36;;;;;;;113.85;50.97;;;3.80;99.90;;;;;;4836684;29;20041;-79
2022/01/26 05:46:08;;;;;;;113.40;50.97;;;3.80;99.90;;;;;;4813304;29;20049;-79
2022/01/26 05:48:38;;;;;;;124.50;54.42;;;3.80;99.90;;;;;;4806781;29;20048;-80
2022/01/26 05:51:07;;;;;;;116.33;51.10;;;3.80;99.90;;;;;;4820032;29;20025;-80
2022/01/26 05:53:35;;;;;;;95.37;45.20;;;3.80;99.90;;;;;;4837611;29;20054;-79
2022/01/26 05:56:02;;;;;;;116.57;50.13;;;3.80;99.90;;;;;;4825010;29;20064;-79
2022/01/26 05:58:29;;;;;;;112.00;50.20;;;3.80;99.90;;;;;;4808932;29;20053;-79
2022/01/26 06:00:59;;;;;;;106.13;47.53;;;3.80;99.90;;;;;;4807061;29;20045;-79
2022/01/26 06:03:26;;;;;;;109.20;49.08;;;3.90;99.90;;;;;;4808096;29;20038;-79
2022/01/26 06:05:54;;;;;;;110.93;48.57;;;3.80;99.90;;;;;;4820220;29;20534;-79
2022/01/26 06:08:21;;;;;;;103.50;48.47;;;3.90;99.90;;;;;;4836389;29;20026;-79
2022/01/26 06:10:49;;;;;;;108.68;49.40;;;3.90;99.90;;;;;;4790818;29;20061;-78
2022/01/26 06:13:15;;;;;;;100.18;45.83;;;3.90;99.90;;;;;;4846226;29;20387;-79
2022/01/26 06:15:42;;;;;;;120.40;52.13;;;3.90;99.90;;;;;;4799453;29;20394;-79
2022/01/26 06:18:08;;;;;;;118.67;52.17;;;3.90;99.90;;;;;;4806873;29;20036;-79
2022/01/26 06:20:34;;;;;;;121.90;51.60;;;3.90;99.90;;;;;;4791256;29;20073;-79
2022/01/26 06:23:03;;;;;;;117.88;52.72;;;3.80;99.90;;;;;;4837709;29;20040;-79
2022/01/26 06:25:30;;;;;;;118.53;54.13;;;3.90;99.90;;;;;;4819426;29;20053;-80
2022/01/26 06:27:59;;;;;;;132.97;60.40;;;3.90;99.90;;;;;;4791593;29;20056;-80
2022/01/26 06:30:26;;;;;;;125.03;56.17;;;3.90;99.90;;;;;;4836100;29;20036;-79
2022/01/26 06:32:53;;;;;;;118.53;51.90;;;3.90;99.90;;;;;;4821294;29;20057;-78
2022/01/26 06:35:20;;;;;;;113.90;50.83;;;3.80;99.90;;;;;;4795742;29;20037;-79
2022/01/26 06:37:46;;;;;;;120.47;52.70;;;3.90;99.90;;;;;;4822603;29;20471;-79
2022/01/26 06:40:13;;;;;;;114.97;50.47;;;3.80;99.90;;;;;;4818086;29;20018;-79
2022/01/26 06:42:53;;;;;;;122.37;54.17;;;3.80;99.90;;;;;;4791418;29;20038;-79
2022/01/26 06:45:24;;;;;;;117.00;53.93;;;3.80;99.90;;;;;;4791675;29;20034;-79
2022/01/26 06:50:23;;;;;;;117.97;53.65;;;3.80;99.90;;;;;;4806382;29;20034;-79
2022/01/26 06:52:50;;;;;;;119.87;54.27;;;3.80;99.90;;;;;;4789000;29;20037;-79
2022/01/26 06:55:18;;;;;;;123.90;56.03;;;3.80;99.90;;;;;;4775683;29;20038;-79
2022/01/26 06:57:45;;;;;;;136.52;61.45;;;3.80;99.90;;;;;;4791104;29;20038;-79
2022/01/26 07:00:12;;;;;;;132.80;57.05;;;3.70;99.90;;;;;;4809561;29;20026;-78
2022/01/26 07:02:39;;;;;;;129.70;56.90;;;3.70;99.90;;;;;;4787643;29;20074;-78
2022/01/26 07:05:07;;;;;;;140.43;60.20;;;3.70;99.90;;;;;;4780482;29;20057;-78
2022/01/26 07:07:33;;;;;;;149.10;64.90;;;3.70;99.90;;;;;;4793553;29;20027;-79
2022/01/26 07:09:59;;;;;;;136.77;60.63;;;3.70;99.90;;;;;;4818442;29;20049;-78
2022/01/26 07:12:26;;;;;;;143.00;62.50;;;3.70;99.90;;;;;;4824850;29;20037;-78
2022/01/26 07:21:22;;;;;;;131.97;57.40;;;3.70;99.90;;;;;;4808086;29;20043;-78
2022/01/26 07:23:09;;;;;;;140.17;60.53;;;3.70;99.90;;;;;;4805395;29;20049;-78
2022/01/26 07:25:36;;;;;;;139.60;58.67;;;3.70;99.90;;;;;;4808363;29;20030;-78
2022/01/26 07:28:04;;;;;;;146.27;61.03;;;3.70;99.90;;;;;;4795095;29;20065;-78
2022/01/26 07:30:35;;;;;;;150.00;62.17;;;3.60;99.90;;;;;;4778065;29;20038;-78
2022/01/26 07:33:03;;;;;;;146.27;61.43;;;3.60;99.90;;;;;;4794723;29;20397;-78
2022/01/26 07:35:29;;;;;;;142.23;58.00;;;3.70;99.90;;;;;;4777349;29;20034;-79
2022/01/26 07:37:58;;;;;;;140.13;61.15;;;3.70;99.90;;;;;;4792495;29;20029;-78
2022/01/26 07:40:25;;;;;;;141.73;61.57;;;3.70;99.90;;;;;;4807991;29;20038;-78
2022/01/26 07:42:53;;;;;;;130.07;55.50;;;3.70;99.90;;;;;;4809954;29;20048;-77
2022/01/26 07:45:20;;;;;;;140.23;58.83;;;3.70;99.90;;;;;;4830784;29;20041;-80
2022/01/26 07:47:47;;;;;;;144.57;59.30;;;3.70;99.90;;;;;;4827229;29;20022;-85
2022/01/26 07:50:15;;;;;;;147.57;62.40;;;3.70;99.90;;;;;;4828758;29;20052;-76
2022/01/26 07:52:42;;;;;;;142.87;59.07;;;3.70;99.90;;;;;;4829896;29;20060;-77
2022/01/26 07:55:14;;;;;;;155.18;65.47;;;3.70;99.90;;;;;;4844640;29;20053;-77
2022/01/26 07:57:40;;;;;;;150.13;61.20;;;3.70;99.90;;;;;;4844778;29;20025;-78
2022/01/26 08:00:07;;;;;;;151.57;62.57;;;3.60;99.90;;;;;;4827725;29;20033;-79
2022/01/26 08:02:41;;;;;;;149.03;59.17;;;3.60;99.90;;;;;;4830714;29;20048;-79
2022/01/26 08:05:08;;;;;;;143.60;59.43;;;3.60;99.90;;;;;;4814123;29;20032;-79
2022/01/26 08:07:35;;;;;;;148.10;59.63;;;3.60;99.90;;;;;;4828344;29;20057;-79
2022/01/26 08:10:03;;;;;;;150.25;62.63;;;3.60;99.90;;;;;;4811411;29;20028;-79
2022/01/26 08:12:31;;;;;;;134.30;54.43;;;3.60;99.90;;;;;;4809734;29;20060;-79
2022/01/26 08:14:57;;;;;;;137.10;57.13;;;3.70;99.90;;;;;;4827466;29;20041;-79
2022/01/26 08:17:23;;;;;;;143.17;55.97;;;3.70;99.90;;;;;;4843221;29;20028;-79
2022/01/26 08:19:52;;;;;;;143.27;58.57;;;3.70;99.90;;;;;;4841007;29;20043;-80
2022/01/26 08:22:24;;;;;;;128.83;52.57;;;3.70;99.90;;;;;;4814796;29;20240;-79
2022/01/26 08:24:50;;;;;;;140.18;56.78;;;3.70;99.90;;;;;;4810551;29;20025;-79
2022/01/26 08:27:19;;;;;;;161.23;61.83;;;3.70;99.90;;;;;;4814024;29;20026;-80
2022/01/26 08:29:53;;;;;;;152.03;59.40;;;3.70;99.90;;;;;;4842707;29;20049;-80
2022/01/26 08:32:20;;;;;;;132.20;54.27;;;3.70;99.90;;;;;;4843785;29;20045;-81
2022/01/26 08:34:46;;;;;;;147.83;61.50;;;3.70;99.90;;;;;;4812137;29;20355;-78
2022/01/26 08:37:12;;;;;;;143.93;59.57;;;3.70;99.90;;;;;;4858441;29;20116;-80
2022/01/26 08:39:39;;;;;;;147.00;57.78;;;3.70;99.90;;;;;;4843776;29;20025;-79
2022/01/26 08:42:06;;;;;;;148.77;59.53;;;3.70;99.90;;;;;;4827114;29;20046;-79
2022/01/26 08:44:34;;;;;;;129.97;53.80;;;3.80;99.90;;;;;;4842597;29;20046;-79
2022/01/26 08:47:02;;;;;;;149.30;58.50;;;3.80;99.90;;;;;;4844859;29;20026;-80
2022/01/26 08:49:29;;;;;;;142.27;57.73;;;3.80;99.90;;;;;;4812983;29;20370;-79
2022/01/26 08:51:56;;;;;;;132.27;53.57;;;3.80;99.90;;;;;;4814463;29;20025;-78
2022/01/26 08:54:25;;;;;;;137.03;55.97;;;3.80;99.90;;;;;;4843908;29;20037;-78
2022/01/26 08:56:52;;;;;;;142.10;59.03;;;3.80;99.90;;;;;;4812755;29;20037;-78
2022/01/26 08:59:20;;;;;;;147.67;59.97;;;3.80;99.90;;;;;;4829331;29;20029;-78
2022/01/26 09:01:47;;;;;;;142.37;55.73;;;3.90;99.90;;;;;;4826108;29;20643;-77
2022/01/26 09:04:14;;;;;;;129.70;49.83;;;3.90;99.90;;;;;;4842202;29;20060;-77
2022/01/26 09:06:53;;;;;;;122.32;50.50;;;3.80;99.90;;;;;;4824361;29;20048;-77
2022/01/26 09:09:21;;;;;;;134.82;53.85;;;3.90;99.90;;;;;;4826342;29;20036;-77
2022/01/26 09:11:49;;;;;;;132.30;51.83;;;3.90;99.90;;;;;;4808848;29;20029;-77
2022/01/26 09:14:21;;;;;;;131.37;54.57;;;3.90;99.90;;;;;;4859871;29;20055;-78
2022/01/26 09:16:50;;;;;;;137.77;56.70;;;3.90;99.90;;;;;;4843500;29;20048;-77
2022/01/26 09:19:28;;;;;;;130.30;54.00;;;3.90;99.90;;;;;;4812136;29;20028;-77
2022/01/26 09:21:57;;;;;;;148.40;62.20;;;3.90;99.90;;;;;;4826175;29;20477;-77
2022/01/26 09:24:26;;;;;;;133.52;56.55;;;3.90;99.90;;;;;;4813436;29;20455;-77
2022/01/26 09:26:52;;;;;;;131.98;54.83;;;4.00;99.90;;;;;;4814003;29;20063;-77
2022/01/26 09:29:19;;;;;;;135.32;54.78;;;4.00;99.90;;;;;;4813164;29;20040;-77
2022/01/26 09:31:47;;;;;;;137.00;54.70;;;4.00;99.90;;;;;;4813810;29;20025;-77
2022/01/26 09:34:18;;;;;;;128.67;51.57;;;4.00;99.90;;;;;;4842268;29;20041;-77
2022/01/26 09:36:45;;;;;;;133.45;55.70;;;4.00;99.90;;;;;;4869819;29;20021;-76
2022/01/26 09:39:14;;;;;;;121.22;50.95;;;4.10;99.90;;;;;;4859152;29;20039;-78
2022/01/26 09:41:40;;;;;;;119.85;49.75;;;4.10;99.90;;;;;;4842508;29;20048;-76
2022/01/26 09:44:07;;;;;;;121.13;51.07;;;4.10;99.90;;;;;;4822922;29;20060;-76
2022/01/26 09:46:34;;;;;;;118.72;49.70;;;4.20;99.90;;;;;;4842151;29;20040;-77
2022/01/26 09:49:03;;;;;;;123.67;53.50;;;4.20;99.90;;;;;;4811018;29;20045;-77
2022/01/26 09:51:32;;;;;;;123.38;50.25;;;4.30;99.90;;;;;;4855366;29;20509;-76
2022/01/26 09:54:04;;;;;;;132.68;56.75;;;4.30;99.90;;;;;;4812498;29;20032;-76
2022/01/26 09:56:31;;;;;;;129.82;52.97;;;4.30;99.90;;;;;;4840652;29;20351;-78
2022/01/26 09:58:58;;;;;;;130.38;55.47;;;4.30;99.90;;;;;;4838850;29;20029;-76
2022/01/26 10:01:24;;;;;;;112.90;49.57;;;4.30;99.90;;;;;;4825626;29;20029;-76
2022/01/26 10:03:52;;;;;;;116.25;49.20;;;4.30;99.90;;;;;;4841013;29;20041;-78
2022/01/26 10:06:28;;;;;;;111.87;48.30;;;4.40;99.90;;;;;;4843459;29;20453;-78
2022/01/26 10:09:28;;;;;;;113.77;50.47;;;4.40;99.90;;;;;;4828618;29;20366;-78
2022/01/26 10:17:40;;;;;;;114.50;48.83;;;4.50;99.90;;;;;;4857461;29;20029;-77
2022/01/26 10:20:09;;;;;;;107.90;49.00;;;4.50;99.90;;;;;;4840945;29;20024;-78
2022/01/26 10:22:38;;;;;;;101.70;46.42;;;4.50;99.90;;;;;;4812290;29;20033;-77
2022/01/26 10:25:17;;;;;;;107.80;45.67;;;4.50;99.90;;;;;;4841748;29;20416;-77
2022/01/26 10:27:45;;;;;;;108.07;47.65;;;4.60;99.90;;;;;;4824263;29;20036;-75
2022/01/26 10:30:14;;;;;;;96.68;44.67;;;4.60;99.90;;;;;;4827874;29;20032;-78
2022/01/26 10:32:42;;;;;;;101.47;44.97;;;4.60;99.90;;;;;;4826600;29;20027;-78
2022/01/26 10:35:09;;;;;;;105.93;46.67;;;4.60;99.90;;;;;;4824898;29;20477;-78
2022/01/26 10:37:39;;;;;;;94.20;44.13;;;4.60;99.90;;;;;;4827575;29;20040;-78
2022/01/26 10:40:12;;;;;;;91.63;45.57;;;4.70;99.90;;;;;;4810941;29;20025;-78
2022/01/26 10:42:38;;;;;;;106.47;49.08;;;4.70;99.90;;;;;;4824073;29;20485;-78
2022/01/26 10:47:36;;;;;;;93.95;47.92;;;4.70;99.90;;;;;;4856043;29;20041;-77
2022/01/26 10:53:14;;;;;;;79.47;40.30;;;4.60;99.90;;;;;;4824705;29;20485;-77
2022/01/26 10:55:41;;;;;;;82.70;41.70;;;4.70;99.90;;;;;;4829017;29;20381;-77
2022/01/26 10:58:08;;;;;;;80.27;40.87;;;4.70;99.90;;;;;;4825207;29;20500;-77
2022/01/26 11:00:41;;;;;;;80.03;43.17;;;4.70;99.90;;;;;;4837815;29;20381;-78
2022/01/26 11:03:08;;;;;;;89.60;44.92;;;4.70;99.90;;;;;;4852966;29;20037;-78
2022/01/26 11:05:34;;;;;;;79.05;39.40;;;4.70;99.90;;;;;;4842206;29;20036;-78
2022/01/26 11:08:02;;;;;;;72.22;35.97;;;4.70;99.90;;;;;;4840113;29;20022;-77
2022/01/26 11:10:33;;;;;;;78.78;40.58;;;4.70;99.90;;;;;;4808493;29;20033;-78
2022/01/26 11:13:00;;;;;;;81.63;42.20;;;4.70;99.90;;;;;;4826960;29;20048;-78
2022/01/26 11:15:27;;;;;;;73.07;38.35;;;4.70;99.90;;;;;;4827151;29;20053;-77
2022/01/26 11:18:17;;;;;;;76.03;40.08;;;4.80;99.90;;;;;;4811616;29;20041;-76
2022/01/26 11:20:50;;;;;;;76.88;38.88;;;4.80;99.90;;;;;;4838313;29;20028;-79
2022/01/26 11:23:17;;;;;;;;;;;4.80;99.90;;;;;;4813344;29;20461;-77
2022/01/26 11:25:48;;;;;;;66.60;35.30;;;4.80;99.90;;;;;;4843650;29;20343;-76
2022/01/26 11:28:14;;;;;;;75.80;37.17;;;4.80;99.90;;;;;;4824928;29;20022;-76
2022/01/26 11:30:41;;;;;;;75.32;37.03;;;4.90;99.90;;;;;;4839232;29;20030;-78
2022/01/26 11:33:35;;;;;;;70.32;35.88;;;4.90;99.90;;;;;;4825714;29;20033;-78
2022/01/26 11:36:02;;;;;;;71.28;35.75;;;4.90;99.90;;;;;;4838760;29;20490;-78
2022/01/26 11:47:00;;;;;;;69.32;33.10;;;5.00;99.90;;;;;;4825766;29;20021;-78
2022/01/26 11:49:34;;;;;;;67.38;33.50;;;5.00;99.90;;;;;;4816388;29;20032;-78
2022/01/26 11:52:01;;;;;;;67.82;32.92;;;5.10;99.90;;;;;;4856261;29;20021;-78
2022/01/26 11:54:40;;;;;;;65.50;31.25;;;5.10;99.90;;;;;;4842845;29;20037;-78
2022/01/26 11:57:13;;;;;;;65.17;30.93;;;5.10;99.90;;;;;;4816673;29;20036;-79
2022/01/26 11:59:46;;;;;;;58.38;30.80;;;5.20;99.90;;;;;;4816343;29;20160;-79
2022/01/26 12:02:37;;;;;;;57.67;29.17;;;5.20;99.90;;;;;;4827086;29;20382;-77
2022/01/26 12:05:09;;;;;;;59.00;29.15;;;5.30;99.90;;;;;;4829621;29;20042;-78
2022/01/26 12:07:46;;;;;;;65.88;30.85;;;5.30;99.90;;;;;;4843625;29;20032;-79
2022/01/26 12:10:27;;;;;;;62.63;31.73;;;5.40;99.90;;;;;;4844347;29;20021;-77
2022/01/26 12:13:17;;;;;;;64.93;31.60;;;5.40;99.90;;;;;;4827734;29;20055;-77
2022/01/26 12:16:05;;;;;;;67.32;31.23;;;5.40;99.90;;;;;;4843244;29;20022;-78
2022/01/26 12:18:46;;;;;;;67.05;34.17;;;5.50;99.90;;;;;;4845814;29;20040;-77
2022/01/26 12:35:42;;;;;;;68.90;33.92;;;5.70;99.90;;;;;;4844800;29;19935;-77
2022/01/26 12:44:02;;;;;;;67.82;32.80;;;5.80;99.90;;;;;;4833104;29;20046;-76
2022/01/26 12:46:31;;;;;;;72.63;36.85;;;5.90;99.90;;;;;;4836173;29;20038;-76
2022/01/26 12:49:10;;;;;;;73.57;33.78;;;5.90;99.90;;;;;;4825352;29;20033;-76
2022/01/26 12:51:51;;;;;;;64.95;33.85;;;5.90;99.90;;;;;;4812787;29;20421;-78
2022/01/26 12:54:19;;;;;;;64.95;33.13;;;5.90;99.90;;;;;;4809968;29;20061;-77
2022/01/26 12:56:46;;;;;;;60.78;34.58;;;6.00;99.90;;;;;;4820608;29;20026;-76
2022/01/26 12:59:20;;;;;;;71.22;35.95;;;6.00;99.90;;;;;;4856759;29;20045;-76
2022/01/26 13:01:51;;;;;;;62.58;32.22;;;6.00;99.90;;;;;;4790969;29;20033;-77
2022/01/26 13:04:17;;;;;;;66.30;35.13;;;6.00;99.90;;;;;;4809257;29;20520;-78
2022/01/26 13:06:51;;;;;;;69.63;37.00;;;6.00;99.90;;;;;;4810818;29;20032;-79
2022/01/26 13:09:18;;;;;;;70.10;37.97;;;6.10;99.90;;;;;;4793222;29;20351;-76
2022/01/26 13:11:47;;;;;;;68.72;37.85;;;6.10;99.90;;;;;;4821074;29;20021;-78
2022/01/26 13:14:31;;;;;;;70.72;37.80;;;6.10;99.90;;;;;;4812816;29;20030;-80
2022/01/26 13:17:24;;;;;;;63.47;34.75;;;6.20;99.90;;;;;;4821495;29;20029;-81
2022/01/26 13:23:04;;;;;;;74.75;37.78;;;6.20;99.90;;;;;;4835166;29;20393;-79
2022/01/26 13:25:49;;;;;;;61.97;34.97;;;6.20;99.90;;;;;;4808007;29;20478;-79
2022/01/26 13:36:08;;;;;;;62.20;34.88;;;6.10;99.90;;;;;;4839525;29;20053;-78
2022/01/26 13:38:58;;;;;;;63.97;34.47;;;6.10;99.90;;;;;;4810471;29;20021;-78
2022/01/26 13:41:34;;;;;;;60.97;32.78;;;6.10;99.90;;;;;;4808517;29;20037;-78
2022/01/26 13:49:46;;;;;;;66.95;33.95;;;6.00;99.90;;;;;;4837288;29;20048;-79
2022/01/26 13:55:17;;;;;;;61.13;31.90;;;5.90;99.90;;;;;;4810177;29;20088;-80
2022/01/26 14:00:42;;;;;;;62.17;32.75;;;5.90;99.90;;;;;;4758657;29;20048;-78
2022/01/26 14:03:11;;;;;;;62.53;31.77;;;5.90;99.90;;;;;;4791661;29;20407;-79
2022/01/26 14:05:38;;;;;;;64.05;33.58;;;5.90;99.90;;;;;;4807377;29;20049;-78
2022/01/26 14:08:04;;;;;;;58.70;32.47;;;5.90;99.90;;;;;;4791549;29;20358;-78
2022/01/26 14:10:32;;;;;;;64.03;33.85;;;5.90;99.90;;;;;;4805685;29;20022;-78
2022/01/26 14:13:00;;;;;;;64.90;32.80;;;5.90;99.90;;;;;;4823460;29;20042;-77
2022/01/26 14:15:38;;;;;;;59.90;32.78;;;5.90;99.90;;;;;;4810580;29;20366;-79
2022/01/26 14:26:13;;;;;;;58.20;32.60;;;5.90;99.90;;;;;;4838037;29;20041;-83
2022/01/26 14:28:39;;;;;;;49.65;28.00;;;5.90;99.90;;;;;;4789591;29;20052;-78
2022/01/26 14:31:27;;;;;;;58.53;30.65;;;5.90;99.90;;;;;;4789917;29;20037;-79
2022/01/26 14:36:42;;;;;;;61.40;33.58;;;5.90;99.90;;;;;;4823347;29;20397;-79
2022/01/26 14:55:52;;;;;;;59.15;32.08;;;5.80;99.90;;;;;;4781819;29;20049;-79
2022/01/26 15:08:43;;;;;;;59.30;33.10;;;5.90;99.90;;;;;;4757542;29;20047;-78
2022/01/26 15:18:57;;;;;;;63.17;32.72;;;5.70;99.90;;;;;;4792318;29;20026;-79
2022/01/26 15:50:23;;;;;;;57.03;29.65;;;5.60;99.90;;;;;;4829717;29;20021;-79
2022/01/26 15:52:59;;;;;;;58.00;31.25;;;5.60;99.90;;;;;;4843473;29;20386;-78
2022/01/26 16:06:20;;;;;;;59.22;32.78;;;5.50;99.90;;;;;;4860725;29;20033;-78
2022/01/26 16:39:04;;;;;;;59.92;34.22;;;5.50;99.90;;;;;;4842308;29;20382;-79
2022/01/26 16:53:22;;;;;;;53.38;30.40;;;5.50;99.90;;;;;;4842552;29;20501;-80
2022/01/26 18:07:15;;;;;;;93.05;48.17;;;5.20;99.90;;;;;;4843457;29;20037;-86
2022/01/26 18:17:57;;;;;;;89.47;46.22;;;5.20;99.90;;;;;;4840621;29;20045;-82
2022/01/26 18:25:52;;;;;;;80.35;45.20;;;5.10;99.90;;;;;;4826167;29;20045;-79
2022/01/26 18:50:34;;;;;;;86.05;45.05;;;5.10;99.90;;;;;;4825137;29;20038;-81
2022/01/26 18:53:01;;;;;;;91.80;48.45;;;5.10;99.90;;;;;;4816161;29;20056;-81
2022/01/26 18:55:27;;;;;;;93.35;48.92;;;5.10;99.90;;;;;;4841110;29;20040;-81
2022/01/26 18:57:53;;;;;;;86.57;47.75;;;5.10;99.90;;;;;;4791895;29;20052;-82
2022/01/26 19:00:20;;;;;;;89.07;46.40;;;5.10;99.90;;;;;;4825816;29;20377;-82
2022/01/26 19:02:46;;;;;;;84.30;47.00;;;5.00;99.90;;;;;;4841012;29;20033;-82
2022/01/26 19:05:13;;;;;;;85.22;47.35;;;5.00;99.90;;;;;;4811325;29;20034;-80
2022/01/26 19:07:39;;;;;;;84.93;45.83;;;5.10;99.90;;;;;;4810815;29;20038;-80
2022/01/26 19:10:07;;;;;;;87.53;46.07;;;5.00;99.90;;;;;;4836432;29;20033;-79
2022/01/26 19:12:36;;;;;;;92.35;48.25;;;5.00;99.90;;;;;;4836073;29;20030;-80